Time;durP1;ratioP1;P1;durP2;ratioP2;P2;SDS_P1;SDS_P2;PMS_P1;PMS_P2;Temp;Humidity;BMP_temperature;BMP_pressure;BME280_temperature;BME280_humidity;BME280_pressure;Samples;Min_cycle;Max_cycle;Signal;HPM_P1;HPM_P2
2022/03/21 00:00:01;;;;;;;;;;;19.00;24.60;;;;;;466805;254;2193;-80
2022/03/21 00:02:02;;;;;;;;;;;18.80;24.70;;;;;;466835;254;1316;-80
2022/03/21 00:04:03;;;;;;;;;;;18.70;24.80;;;;;;466768;254;977;-80
2022/03/21 00:06:05;;;;;;;;;;;18.70;24.90;;;;;;466814;254;1053;-80
2022/03/21 00:08:06;;;;;;;;;;;18.60;24.90;;;;;;466738;254;1027;-80
2022/03/21 00:10:07;;;;;;;;;;;18.50;25.00;;;;;;466720;254;1246;-80
2022/03/21 00:12:09;;;;;;;;;;;18.50;25.00;;;;;;466732;254;1206;-80
2022/03/21 00:14:12;;;;;;;;;;;18.40;25.10;;;;;;466762;254;1148;-80
2022/03/21 00:16:12;;;;;;;;;;;18.40;25.10;;;;;;466758;254;1311;-81
2022/03/21 00:18:14;;;;;;;;;;;18.30;25.10;;;;;;466790;254;1032;-80
2022/03/21 00:20:15;;;;;;;;;;;18.30;25.10;;;;;;466801;254;2126;-81
2022/03/21 00:22:17;;;;;;;;;;;18.30;25.20;;;;;;466730;254;1071;-80
2022/03/21 00:24:18;;;;;;;;;;;18.30;25.20;;;;;;466772;254;1423;-80
2022/03/21 00:26:19;;;;;;;;;;;18.30;25.20;;;;;;466704;254;1181;-81
2022/03/21 00:28:21;;;;;;;;;;;18.30;25.20;;;;;;466756;254;1062;-80
2022/03/21 00:30:22;;;;;;;;;;;18.20;25.20;;;;;;466786;254;970;-80
2022/03/21 00:32:23;;;;;;;;;;;18.20;25.30;;;;;;466756;254;1048;-80
2022/03/21 00:34:25;;;;;;;;;;;18.20;25.30;;;;;;466784;254;1264;-80
2022/03/21 00:36:26;;;;;;;;;;;18.20;25.30;;;;;;466750;254;1105;-80
2022/03/21 00:38:27;;;;;;;;;;;18.20;25.30;;;;;;466751;254;1060;-80
2022/03/21 00:40:29;;;;;;;;;;;18.20;25.30;;;;;;466763;254;2197;-80
2022/03/21 00:42:32;;;;;;;;;;;18.10;25.30;;;;;;466777;254;1242;-80
2022/03/21 00:44:32;;;;;;;;;;;18.10;25.30;;;;;;466736;254;1465;-80
2022/03/21 00:46:34;;;;;;;;;;;18.10;25.30;;;;;;466757;254;1114;-80
2022/03/21 00:48:35;;;;;;;;;;;18.10;25.30;;;;;;466788;254;1055;-81
2022/03/21 00:50:36;;;;;;;;;;;18.10;25.30;;;;;;466778;254;1070;-80
2022/03/21 00:52:38;;;;;;;;;;;18.10;25.30;;;;;;466740;254;1087;-80
2022/03/21 00:54:39;;;;;;;;;;;18.10;25.30;;;;;;466782;254;1085;-80
2022/03/21 00:56:40;;;;;;;;;;;18.10;25.30;;;;;;466745;254;1251;-81
2022/03/21 00:58:42;;;;;;;;;;;18.20;25.40;;;;;;466847;254;1127;-81
2022/03/21 01:00:43;;;;;;;;;;;18.20;25.30;;;;;;466751;254;2204;-80
2022/03/21 01:02:44;;;;;;;;;;;18.20;25.30;;;;;;466686;254;1101;-80
2022/03/21 01:04:46;;;;;;;;;;;18.20;25.40;;;;;;466770;254;1010;-81
2022/03/21 01:06:47;;;;;;;;;;;18.20;25.30;;;;;;466724;254;1066;-81
2022/03/21 01:08:48;;;;;;;;;;;18.20;25.30;;;;;;466770;254;1036;-80
2022/03/21 01:10:50;;;;;;;;;;;18.20;25.40;;;;;;466764;254;1434;-80
2022/03/21 01:12:51;;;;;;;;;;;18.20;25.40;;;;;;466767;254;1088;-80
2022/03/21 01:14:52;;;;;;;;;;;18.10;25.40;;;;;;466790;254;967;-80
2022/03/21 01:16:55;;;;;;;;;;;18.10;25.50;;;;;;466819;254;1075;-81
2022/03/21 01:18:55;;;;;;;;;;;18.10;25.50;;;;;;466772;254;1414;-81
2022/03/21 01:20:57;;;;;;;;;;;18.10;25.60;;;;;;466716;254;2184;-81
2022/03/21 01:22:58;;;;;;;;;;;18.00;25.60;;;;;;466770;254;1053;-81
2022/03/21 01:24:59;;;;;;;;;;;18.00;25.60;;;;;;466843;254;969;-81
2022/03/21 01:27:01;;;;;;;;;;;18.00;25.60;;;;;;466738;254;1203;-80
2022/03/21 01:29:02;;;;;;;;;;;18.00;25.70;;;;;;466734;254;1020;-80
2022/03/21 01:31:04;;;;;;;;;;;18.00;25.70;;;;;;466740;254;1062;-80
2022/03/21 01:33:07;;;;;;;;;;;18.00;25.70;;;;;;466802;254;1027;-80
2022/03/21 01:35:06;;;;;;;;;;;18.00;25.70;;;;;;466821;254;1458;-80
2022/03/21 01:37:07;;;;;;;;;;;18.00;25.70;;;;;;466749;254;1049;-80
2022/03/21 01:39:09;;;;;;;;;;;18.00;25.60;;;;;;466714;254;969;-80
2022/03/21 01:41:10;;;;;;;;;;;18.00;25.70;;;;;;466815;254;2166;-80
2022/03/21 01:43:11;;;;;;;;;;;18.00;25.60;;;;;;466773;254;1046;-80
2022/03/21 01:45:13;;;;;;;;;;;18.00;25.60;;;;;;466804;254;998;-81
2022/03/21 01:47:14;;;;;;;;;;;18.00;25.60;;;;;;466831;254;1106;-80
2022/03/21 01:49:16;;;;;;;;;;;18.00;25.60;;;;;;466737;254;1062;-80
2022/03/21 01:51:17;;;;;;;;;;;18.00;25.60;;;;;;466709;254;1655;-80
2022/03/21 01:55:48;;;;;;;;;;;18.00;25.70;;;;;;466742;256;1046;-80
2022/03/21 01:57:48;;;;;;;;;;;17.90;25.70;;;;;;466756;254;1452;-81
2022/03/21 01:59:49;;;;;;;;;;;17.90;25.70;;;;;;466758;254;2188;-80
2022/03/21 02:01:50;;;;;;;;;;;17.90;25.70;;;;;;466770;254;964;-80
2022/03/21 02:03:52;;;;;;;;;;;17.90;25.70;;;;;;466841;254;958;-80
2022/03/21 02:05:53;;;;;;;;;;;18.00;25.70;;;;;;466747;254;1039;-80
2022/03/21 02:07:54;;;;;;;;;;;18.00;25.70;;;;;;466715;254;1174;-80
2022/03/21 02:09:55;;;;;;;;;;;18.00;25.60;;;;;;466777;254;1142;-80
2022/03/21 02:11:57;;;;;;;;;;;18.00;25.60;;;;;;466727;254;1256;-80
2022/03/21 02:13:58;;;;;;;;;;;18.00;25.60;;;;;;466758;254;1100;-80
2022/03/21 02:15:59;;;;;;;;;;;18.00;25.60;;;;;;466725;254;1291;-81
2022/03/21 02:18:01;;;;;;;;;;;18.00;25.60;;;;;;466767;254;1110;-81
2022/03/21 02:20:02;;;;;;;;;;;18.00;25.60;;;;;;466760;254;2126;-80
2022/03/21 02:22:03;;;;;;;;;;;18.00;25.60;;;;;;466748;254;1269;-80
2022/03/21 02:24:05;;;;;;;;;;;17.90;25.60;;;;;;466812;254;1132;-80
2022/03/21 02:26:06;;;;;;;;;;;17.90;25.60;;;;;;466752;254;1061;-80
2022/03/21 02:28:07;;;;;;;;;;;18.00;25.60;;;;;;466767;254;1259;-80
2022/03/21 02:30:09;;;;;;;;;;;18.00;25.60;;;;;;466754;254;966;-81
2022/03/21 02:32:10;;;;;;;;;;;18.00;25.60;;;;;;466777;254;1080;-80
2022/03/21 02:34:11;;;;;;;;;;;18.00;25.60;;;;;;466760;254;1036;-80
2022/03/21 02:36:13;;;;;;;;;;;18.00;25.60;;;;;;466740;254;962;-80
2022/03/21 02:38:14;;;;;;;;;;;18.00;25.60;;;;;;466734;254;1128;-80
2022/03/21 02:40:16;;;;;;;;;;;18.00;25.60;;;;;;466743;254;2197;-80
2022/03/21 02:42:17;;;;;;;;;;;18.10;25.60;;;;;;466716;254;1185;-80
2022/03/21 02:44:18;;;;;;;;;;;18.10;25.50;;;;;;466781;254;1115;-80
2022/03/21 02:46:19;;;;;;;;;;;18.10;25.50;;;;;;466663;254;1124;-80
2022/03/21 02:48:21;;;;;;;;;;;18.10;25.50;;;;;;466735;254;974;-80
2022/03/21 02:50:22;;;;;;;;;;;18.10;25.60;;;;;;466720;254;974;-80
2022/03/21 02:52:23;;;;;;;;;;;18.10;25.60;;;;;;466674;254;988;-80
2022/03/21 02:54:25;;;;;;;;;;;18.10;25.60;;;;;;466686;254;1275;-80
2022/03/21 02:56:26;;;;;;;;;;;18.10;25.60;;;;;;466750;254;1086;-80
2022/03/21 02:58:27;;;;;;;;;;;18.10;25.60;;;;;;466831;254;1168;-81
2022/03/21 03:00:29;;;;;;;;;;;18.10;25.60;;;;;;466778;254;2185;-81
2022/03/21 03:02:30;;;;;;;;;;;18.10;25.60;;;;;;466777;254;1043;-81
2022/03/21 03:04:31;;;;;;;;;;;18.10;25.60;;;;;;466754;254;1070;-80
2022/03/21 03:06:32;;;;;;;;;;;18.10;25.60;;;;;;466738;254;1001;-80
2022/03/21 03:08:34;;;;;;;;;;;18.10;25.60;;;;;;466741;254;1120;-80
2022/03/21 03:10:35;;;;;;;;;;;18.10;25.60;;;;;;466725;254;1108;-80
2022/03/21 03:12:36;;;;;;;;;;;18.10;25.60;;;;;;466707;254;1176;-80
2022/03/21 03:14:38;;;;;;;;;;;18.10;25.70;;;;;;466778;254;1301;-80
2022/03/21 03:16:39;;;;;;;;;;;18.10;25.70;;;;;;466757;254;1056;-80
2022/03/21 03:18:44;;;;;;;;;;;18.10;25.70;;;;;;466769;254;1008;-81
2022/03/21 03:20:42;;;;;;;;;;;18.10;25.70;;;;;;466819;254;2129;-81
2022/03/21 03:22:43;;;;;;;;;;;18.10;25.70;;;;;;466880;254;1069;-80
2022/03/21 03:24:44;;;;;;;;;;;18.10;25.70;;;;;;466802;254;954;-80
2022/03/21 03:26:46;;;;;;;;;;;18.20;25.70;;;;;;466770;254;1034;-80
2022/03/21 03:28:47;;;;;;;;;;;18.10;25.70;;;;;;466819;254;1177;-80
2022/03/21 03:30:48;;;;;;;;;;;18.10;25.70;;;;;;466761;254;1041;-80
2022/03/21 03:32:51;;;;;;;;;;;18.10;25.70;;;;;;466878;254;1126;-81
2022/03/21 03:34:51;;;;;;;;;;;18.10;25.70;;;;;;466795;254;1497;-81
2022/03/21 03:36:52;;;;;;;;;;;18.10;25.70;;;;;;466792;254;1046;-80
2022/03/21 03:38:54;;;;;;;;;;;18.00;25.70;;;;;;466744;254;1242;-80
2022/03/21 03:40:55;;;;;;;;;;;18.00;25.70;;;;;;466779;254;2201;-80
2022/03/21 03:42:56;;;;;;;;;;;18.10;25.80;;;;;;466762;254;1166;-80
2022/03/21 03:44:58;;;;;;;;;;;18.10;25.80;;;;;;466771;254;1060;-80
2022/03/21 03:46:59;;;;;;;;;;;18.10;25.70;;;;;;466731;254;1053;-80
2022/03/21 03:49:00;;;;;;;;;;;18.10;25.70;;;;;;466811;254;1080;-80
2022/03/21 03:51:03;;;;;;;;;;;18.10;25.80;;;;;;466789;254;999;-80
2022/03/21 03:53:03;;;;;;;;;;;18.00;25.70;;;;;;466733;254;1454;-80
2022/03/21 03:55:05;;;;;;;;;;;18.00;25.80;;;;;;466782;254;1136;-80
2022/03/21 03:57:06;;;;;;;;;;;18.00;25.70;;;;;;466732;254;1026;-80
2022/03/21 03:59:07;;;;;;;;;;;18.00;25.80;;;;;;466834;254;1223;-80
2022/03/21 04:01:09;;;;;;;;;;;17.90;25.70;;;;;;466760;254;2196;-80
2022/03/21 04:05:29;;;;;;;;;;;18.00;25.80;;;;;;466821;255;977;-80
2022/03/21 04:07:30;;;;;;;;;;;18.00;25.80;;;;;;466797;254;1053;-80
2022/03/21 04:09:32;;;;;;;;;;;18.00;25.80;;;;;;466802;254;1076;-80
2022/03/21 04:11:34;;;;;;;;;;;18.00;25.70;;;;;;466743;254;1164;-80
2022/03/21 04:13:34;;;;;;;;;;;18.00;25.70;;;;;;466733;254;1828;-80
2022/03/21 04:15:36;;;;;;;;;;;18.00;25.70;;;;;;466737;254;1032;-80
2022/03/21 04:17:37;;;;;;;;;;;18.00;25.80;;;;;;466733;254;1075;-80
2022/03/21 04:19:38;;;;;;;;;;;18.00;25.80;;;;;;466799;254;985;-80
2022/03/21 04:21:40;;;;;;;;;;;18.00;25.80;;;;;;466770;254;2193;-80
2022/03/21 04:23:41;;;;;;;;;;;18.00;25.80;;;;;;466848;254;1069;-80
2022/03/21 04:25:42;;;;;;;;;;;18.00;25.80;;;;;;466773;254;963;-80
2022/03/21 04:27:44;;;;;;;;;;;18.00;25.80;;;;;;466745;254;1303;-80
2022/03/21 04:29:45;;;;;;;;;;;18.00;25.70;;;;;;466740;254;1026;-80
2022/03/21 04:31:46;;;;;;;;;;;18.00;25.80;;;;;;466750;254;1036;-80
2022/03/21 04:33:48;;;;;;;;;;;18.00;25.80;;;;;;466805;254;1154;-80
2022/03/21 04:35:49;;;;;;;;;;;18.00;25.80;;;;;;466814;254;1046;-80
2022/03/21 04:37:50;;;;;;;;;;;17.90;25.80;;;;;;466684;254;1081;-80
2022/03/21 04:39:53;;;;;;;;;;;18.00;25.90;;;;;;466802;254;1095;-80
2022/03/21 04:41:53;;;;;;;;;;;18.00;25.90;;;;;;466640;254;2249;-80
2022/03/21 04:43:55;;;;;;;;;;;18.00;25.90;;;;;;466722;254;1256;-80
2022/03/21 04:45:56;;;;;;;;;;;18.00;25.80;;;;;;466733;254;1025;-80
2022/03/21 04:47:57;;;;;;;;;;;18.00;25.80;;;;;;466784;254;1107;-81
2022/03/21 04:49:59;;;;;;;;;;;18.00;25.80;;;;;;466786;254;1067;-80
2022/03/21 04:52:00;;;;;;;;;;;18.00;25.80;;;;;;466700;254;1482;-80
2022/03/21 04:54:01;;;;;;;;;;;18.00;25.80;;;;;;466730;254;1076;-80
2022/03/21 04:56:03;;;;;;;;;;;17.90;25.70;;;;;;466747;254;1041;-80
2022/03/21 04:58:04;;;;;;;;;;;18.00;25.80;;;;;;466824;254;1419;-80
2022/03/21 05:00:05;;;;;;;;;;;17.90;25.80;;;;;;466791;254;1060;-80
2022/03/21 05:02:07;;;;;;;;;;;18.00;25.80;;;;;;466729;254;2197;-80
2022/03/21 05:04:08;;;;;;;;;;;17.90;25.70;;;;;;466710;254;1049;-80
2022/03/21 05:06:09;;;;;;;;;;;17.90;25.70;;;;;;466847;254;967;-80
2022/03/21 05:08:10;;;;;;;;;;;17.90;25.70;;;;;;466841;254;1007;-79
2022/03/21 05:10:12;;;;;;;;;;;17.90;25.70;;;;;;466853;254;1042;-80
2022/03/21 05:12:13;;;;;;;;;;;18.00;25.70;;;;;;466800;254;1052;-80
2022/03/21 05:14:16;;;;;;;;;;;17.90;25.70;;;;;;466814;254;1191;-80
2022/03/21 05:16:16;;;;;;;;;;;18.00;25.70;;;;;;466818;254;1550;-80
2022/03/21 05:18:17;;;;;;;;;;;18.00;25.70;;;;;;466836;254;1001;-79
2022/03/21 05:20:18;;;;;;;;;;;18.00;25.70;;;;;;466812;254;1172;-80
2022/03/21 05:22:20;;;;;;;;;;;18.00;25.70;;;;;;466732;254;2205;-80
2022/03/21 05:31:19;;;;;;;;;;;17.90;25.70;;;;;;466699;256;1058;-80
2022/03/21 05:35:58;;;;;;;;;;;18.00;25.70;;;;;;466682;255;1021;-80
2022/03/21 05:38:00;;;;;;;;;;;17.90;25.70;;;;;;466672;254;1024;-79
2022/03/21 05:42:20;;;;;;;;;;;18.00;25.70;;;;;;466667;255;2115;-80
2022/03/21 05:44:24;;;;;;;;;;;18.00;25.70;;;;;;466589;254;1285;-80
2022/03/21 05:46:23;;;;;;;;;;;18.00;25.70;;;;;;466575;254;1444;-79
2022/03/21 05:50:43;;;;;;;;;;;18.00;25.70;;;;;;466632;256;1077;-80
2022/03/21 05:52:45;;;;;;;;;;;18.00;25.70;;;;;;466637;254;1030;-80
2022/03/21 05:54:46;;;;;;;;;;;18.00;25.70;;;;;;466613;254;1106;-80
2022/03/21 05:56:48;;;;;;;;;;;18.00;25.70;;;;;;466681;254;1035;-79
2022/03/21 05:58:49;;;;;;;;;;;18.00;25.60;;;;;;466612;254;1384;-80
2022/03/21 06:00:50;;;;;;;;;;;18.00;25.60;;;;;;466600;254;1080;-80
2022/03/21 06:02:51;;;;;;;;;;;18.00;25.60;;;;;;466650;254;2188;-80
2022/03/21 06:04:53;;;;;;;;;;;18.00;25.60;;;;;;466674;254;1085;-79
2022/03/21 06:06:55;;;;;;;;;;;18.00;25.60;;;;;;466633;254;992;-80
2022/03/21 06:08:55;;;;;;;;;;;18.00;25.60;;;;;;466752;254;1271;-80
2022/03/21 06:11:04;;;;;;;;;;;18.00;25.60;;;;;;466628;254;1005;-80
2022/03/21 06:13:05;;;;;;;;;;;18.00;25.70;;;;;;466628;254;1040;-80
2022/03/21 06:15:07;;;;;;;;;;;18.00;25.70;;;;;;466648;254;1204;-80
2022/03/21 06:17:08;;;;;;;;;;;18.00;25.70;;;;;;466582;254;1045;-79
2022/03/21 06:19:09;;;;;;;;;;;17.90;25.70;;;;;;466529;254;1066;-79
2022/03/21 06:21:11;;;;;;;;;;;17.90;25.70;;;;;;466541;254;2196;-80
2022/03/21 06:23:12;;;;;;;;;;;18.00;25.70;;;;;;466628;254;971;-80
2022/03/21 06:25:13;;;;;;;;;;;17.90;25.60;;;;;;466629;254;1043;-80
2022/03/21 06:27:15;;;;;;;;;;;18.00;25.70;;;;;;466572;254;1051;-79
2022/03/21 06:29:16;;;;;;;;;;;17.90;25.60;;;;;;466612;254;1166;-80
2022/03/21 06:31:17;;;;;;;;;;;18.00;25.60;;;;;;466422;254;986;-80
2022/03/21 06:33:19;;;;;;;;;;;18.00;25.60;;;;;;466460;254;1042;-80
2022/03/21 06:35:20;;;;;;;;;;;17.90;25.60;;;;;;466476;254;1043;-80
2022/03/21 06:37:21;;;;;;;;;;;17.90;25.60;;;;;;466591;254;1204;-79
2022/03/21 06:39:23;;;;;;;;;;;17.90;25.60;;;;;;466369;254;1176;-80
2022/03/21 06:41:24;;;;;;;;;;;17.90;25.70;;;;;;466426;254;2141;-79
2022/03/21 06:43:26;;;;;;;;;;;17.80;25.60;;;;;;466506;254;1018;-79
2022/03/21 06:45:27;;;;;;;;;;;17.80;25.60;;;;;;466464;254;1243;-80
2022/03/21 06:47:28;;;;;;;;;;;17.90;25.70;;;;;;466427;254;1078;-79
2022/03/21 06:49:30;;;;;;;;;;;17.90;25.70;;;;;;466410;254;1123;-80
2022/03/21 06:51:31;;;;;;;;;;;17.80;25.60;;;;;;466498;254;1111;-80
2022/03/21 06:53:33;;;;;;;;;;;17.90;25.70;;;;;;466439;251;1286;-79
2022/03/21 06:55:34;;;;;;;;;;;17.80;25.70;;;;;;466378;254;1179;-79
2022/03/21 06:57:35;;;;;;;;;;;17.80;25.70;;;;;;466428;254;1102;-79
2022/03/21 06:59:37;;;;;;;;;;;17.80;25.70;;;;;;466408;254;1204;-79
2022/03/21 07:01:38;;;;;;;;;;;17.80;25.70;;;;;;466294;254;2189;-79
2022/03/21 07:03:39;;;;;;;;;;;17.70;25.70;;;;;;466383;254;1177;-78
2022/03/21 07:05:41;;;;;;;;;;;17.80;25.70;;;;;;466469;254;1037;-79
2022/03/21 07:07:43;;;;;;;;;;;17.80;25.70;;;;;;466406;254;1153;-79
2022/03/21 07:09:43;;;;;;;;;;;17.80;25.70;;;;;;466301;254;1134;-78
2022/03/21 07:11:45;;;;;;;;;;;17.80;25.70;;;;;;466261;254;1063;-79
2022/03/21 07:13:46;;;;;;;;;;;17.80;25.70;;;;;;466187;254;1047;-78
2022/03/21 07:15:47;;;;;;;;;;;17.80;25.70;;;;;;466227;254;1164;-78
2022/03/21 07:17:51;;;;;;;;;;;17.80;25.70;;;;;;466260;254;1134;-78
2022/03/21 07:19:50;;;;;;;;;;;17.80;25.70;;;;;;466324;254;1291;-78
2022/03/21 07:21:51;;;;;;;;;;;17.80;25.80;;;;;;466243;254;2212;-78
2022/03/21 07:23:53;;;;;;;;;;;17.80;25.80;;;;;;466336;254;1072;-79
2022/03/21 07:25:55;;;;;;;;;;;17.80;25.80;;;;;;466235;254;1041;-78
2022/03/21 07:27:55;;;;;;;;;;;17.80;25.80;;;;;;466192;254;1294;-78
2022/03/21 07:29:57;;;;;;;;;;;17.80;25.80;;;;;;466130;254;1315;-78
2022/03/21 07:31:58;;;;;;;;;;;17.80;25.80;;;;;;466152;254;1085;-78
2022/03/21 07:33:59;;;;;;;;;;;17.80;25.70;;;;;;466185;254;1029;-78
2022/03/21 07:36:01;;;;;;;;;;;17.80;25.80;;;;;;465925;254;1221;-78
2022/03/21 07:38:02;;;;;;;;;;;17.80;25.80;;;;;;466009;254;1100;-78
2022/03/21 07:40:03;;;;;;;;;;;17.80;25.80;;;;;;466009;254;1057;-78
2022/03/21 07:42:07;;;;;;;;;;;17.80;25.90;;;;;;465935;254;2205;-79
2022/03/21 07:44:06;;;;;;;;;;;17.80;25.90;;;;;;466100;254;1428;-79
2022/03/21 07:48:27;;;;;;;;;;;17.80;25.90;;;;;;466173;256;1041;-79
2022/03/21 07:50:29;;;;;;;;;;;17.80;26.00;;;;;;466087;254;1133;-78
2022/03/21 07:52:30;;;;;;;;;;;17.80;26.00;;;;;;466127;254;1053;-78
2022/03/21 07:54:31;;;;;;;;;;;17.80;26.00;;;;;;466012;254;1121;-78
2022/03/21 07:56:33;;;;;;;;;;;17.80;26.00;;;;;;466004;254;1090;-79
2022/03/21 07:58:34;;;;;;;;;;;17.80;26.00;;;;;;466043;254;1084;-79
2022/03/21 08:00:35;;;;;;;;;;;17.80;26.00;;;;;;466019;254;1192;-79
2022/03/21 08:02:37;;;;;;;;;;;17.80;26.00;;;;;;465973;254;2192;-78
2022/03/21 08:04:38;;;;;;;;;;;17.80;26.00;;;;;;465826;254;1798;-78
2022/03/21 08:06:39;;;;;;;;;;;17.80;26.10;;;;;;465759;254;1084;-79
2022/03/21 08:08:40;;;;;;;;;;;17.80;26.10;;;;;;465961;254;1249;-78
2022/03/21 08:10:42;;;;;;;;;;;17.80;26.10;;;;;;466110;254;1084;-79
2022/03/21 08:12:43;;;;;;;;;;;17.80;26.10;;;;;;466092;254;1089;-79
2022/03/21 08:14:44;;;;;;;;;;;17.80;26.10;;;;;;466124;254;1303;-78
2022/03/21 08:16:45;;;;;;;;;;;17.80;26.10;;;;;;466009;254;1061;-78
2022/03/21 08:18:47;;;;;;;;;;;17.80;26.10;;;;;;465863;254;1111;-78
2022/03/21 08:20:48;;;;;;;;;;;17.80;26.20;;;;;;465783;254;1077;-78
2022/03/21 08:22:49;;;;;;;;;;;17.80;26.10;;;;;;465895;254;2197;-78
2022/03/21 08:24:52;;;;;;;;;;;17.90;26.10;;;;;;466134;254;1086;-78
2022/03/21 08:26:54;;;;;;;;;;;18.20;26.00;;;;;;465991;254;1469;-78
2022/03/21 08:28:53;;;;;;;;;;;18.60;25.70;;;;;;466036;254;1398;-78
2022/03/21 08:30:55;;;;;;;;;;;18.80;25.30;;;;;;465988;254;1233;-78
2022/03/21 08:32:56;;;;;;;;;;;19.00;25.30;;;;;;465955;254;1060;-78
2022/03/21 08:34:57;;;;;;;;;;;19.20;25.10;;;;;;466024;255;989;-78
2022/03/21 08:36:59;;;;;;;;;;;19.40;25.00;;;;;;465839;254;1061;-77
2022/03/21 08:39:00;;;;;;;;;;;19.50;24.80;;;;;;465786;254;1049;-77
2022/03/21 08:41:02;;;;;;;;;;;19.60;24.70;;;;;;465637;254;1221;-77
2022/03/21 08:43:03;;;;;;;;;;;19.80;24.70;;;;;;465637;254;2142;-62
2022/03/21 08:45:05;;;;;;;;;;;20.20;24.30;;;;;;465662;254;1335;-61
2022/03/21 08:47:06;;;;;;;;;;;20.60;24.00;;;;;;465651;254;1258;-63
2022/03/21 08:49:26;;;;;;;;;;;20.70;24.00;;;;;;465711;254;1087;-63
2022/03/21 08:51:27;;;;;;;;;;;20.60;24.10;;;;;;465754;254;1247;-65
2022/03/21 08:53:28;;;;;;;;;;;20.70;24.00;;;;;;465937;254;1082;-59
2022/03/21 08:55:29;;;;;;;;;;;20.80;23.90;;;;;;465869;254;1129;-59
2022/03/21 08:57:31;;;;;;;;;;;20.90;23.80;;;;;;465820;254;1101;-59
2022/03/21 08:59:32;;;;;;;;;;;21.00;23.90;;;;;;465796;254;1250;-59
2022/03/21 09:01:34;;;;;;;;;;;21.10;23.80;;;;;;465802;254;1260;-61
2022/03/21 09:03:35;;;;;;;;;;;21.00;23.80;;;;;;465849;254;2197;-64
2022/03/21 09:05:36;;;;;;;;;;;21.10;23.80;;;;;;465942;254;1034;-59
2022/03/21 09:07:37;;;;;;;;;;;21.20;23.80;;;;;;465919;254;1297;-59
2022/03/21 09:09:39;;;;;;;;;;;21.30;23.80;;;;;;465815;254;1080;-59
2022/03/21 09:11:40;;;;;;;;;;;21.30;23.70;;;;;;465708;254;1111;-59
2022/03/21 09:13:41;;;;;;;;;;;21.30;23.70;;;;;;466093;254;1067;-59
2022/03/21 09:15:43;;;;;;;;;;;21.40;23.60;;;;;;465840;254;1193;-63
2022/03/21 09:17:44;;;;;;;;;;;21.20;23.80;;;;;;466107;254;1096;-62
2022/03/21 09:19:45;;;;;;;;;;;21.20;23.80;;;;;;465915;254;1088;-75
2022/03/21 09:21:48;;;;;;;;;;;21.10;23.80;;;;;;465862;254;1183;-75
2022/03/21 09:23:48;;;;;;;;;;;20.80;24.00;;;;;;466033;254;2196;-75
2022/03/21 09:25:49;;;;;;;;;;;20.80;24.10;;;;;;465719;254;1270;-74
2022/03/21 09:27:51;;;;;;;;;;;20.80;24.00;;;;;;465757;254;1012;-75
2022/03/21 09:29:52;;;;;;;;;;;20.80;24.00;;;;;;465681;251;1158;-75
2022/03/21 09:31:53;;;;;;;;;;;20.90;24.00;;;;;;465701;254;1184;-74
2022/03/21 09:33:55;;;;;;;;;;;20.80;24.00;;;;;;465777;254;1078;-75
2022/03/21 09:35:56;;;;;;;;;;;20.80;24.00;;;;;;465733;254;1181;-75
2022/03/21 09:38:00;;;;;;;;;;;20.80;24.10;;;;;;465706;254;1254;-74
2022/03/21 09:39:59;;;;;;;;;;;20.80;24.10;;;;;;465578;255;1319;-74
2022/03/21 09:42:00;;;;;;;;;;;20.80;24.00;;;;;;465687;254;1172;-75
2022/03/21 09:44:03;;;;;;;;;;;21.10;23.90;;;;;;465718;254;2200;-74
2022/03/21 09:46:04;;;;;;;;;;;21.10;23.80;;;;;;465638;254;1321;-75
2022/03/21 09:48:11;;;;;;;;;;;21.20;23.70;;;;;;465964;254;1379;-75
2022/03/21 09:50:11;;;;;;;;;;;21.20;23.80;;;;;;465993;254;1871;-74
2022/03/21 09:52:13;;;;;;;;;;;21.10;23.80;;;;;;465805;254;1102;-74
2022/03/21 09:54:14;;;;;;;;;;;21.10;23.80;;;;;;465817;254;1092;-74
2022/03/21 09:56:15;;;;;;;;;;;21.20;23.80;;;;;;465932;254;1131;-74
2022/03/21 09:58:17;;;;;;;;;;;21.00;23.90;;;;;;465676;254;1106;-74
2022/03/21 10:00:18;;;;;;;;;;;21.10;24.00;;;;;;465749;254;1178;-74
2022/03/21 10:02:21;;;;;;;;;;;21.20;23.80;;;;;;465626;254;1207;-74
2022/03/21 10:04:21;;;;;;;;;;;21.20;23.80;;;;;;465678;254;2216;-74
2022/03/21 10:06:22;;;;;;;;;;;21.40;23.70;;;;;;465798;254;992;-74
2022/03/21 10:08:23;;;;;;;;;;;21.40;23.70;;;;;;465926;254;982;-74
2022/03/21 10:10:24;;;;;;;;;;;21.20;23.70;;;;;;465929;254;1076;-75
2022/03/21 10:12:26;;;;;;;;;;;21.30;23.70;;;;;;465866;254;1094;-74
2022/03/21 10:14:27;;;;;;;;;;;21.50;23.60;;;;;;465671;254;1072;-74
2022/03/21 10:16:28;;;;;;;;;;;21.30;23.70;;;;;;465541;254;1211;-74
2022/03/21 10:18:30;;;;;;;;;;;21.60;23.60;;;;;;465680;254;1054;-74
2022/03/21 10:20:31;;;;;;;;;;;21.50;23.60;;;;;;465768;254;1074;-74
2022/03/21 10:22:32;;;;;;;;;;;21.60;23.60;;;;;;465820;254;1110;-74
2022/03/21 10:24:34;;;;;;;;;;;21.30;23.70;;;;;;465776;254;2192;-74
2022/03/21 10:26:35;;;;;;;;;;;21.20;23.90;;;;;;465852;254;1157;-74
2022/03/21 10:28:36;;;;;;;;;;;21.10;24.10;;;;;;465774;254;1157;-74
2022/03/21 10:30:38;;;;;;;;;;;21.20;24.10;;;;;;465782;254;1086;-74
2022/03/21 10:32:39;;;;;;;;;;;21.10;24.10;;;;;;465713;254;1202;-74
2022/03/21 10:34:41;;;;;;;;;;;21.30;23.90;;;;;;465803;254;1126;-74
2022/03/21 10:36:42;;;;;;;;;;;21.30;23.90;;;;;;465745;254;1109;-74
2022/03/21 10:38:43;;;;;;;;;;;21.20;23.80;;;;;;465847;254;1210;-74
2022/03/21 10:40:45;;;;;;;;;;;21.10;24.00;;;;;;465707;254;1149;-74
2022/03/21 10:42:46;;;;;;;;;;;21.20;24.00;;;;;;465679;254;2200;-75
2022/03/21 10:44:47;;;;;;;;;;;21.20;23.90;;;;;;465963;254;1139;-74
2022/03/21 10:46:49;;;;;;;;;;;21.20;24.00;;;;;;465810;254;1092;-74
2022/03/21 10:48:50;;;;;;;;;;;21.20;24.00;;;;;;465909;254;1041;-74
2022/03/21 10:50:51;;;;;;;;;;;21.20;24.00;;;;;;465799;254;1152;-74
2022/03/21 10:52:53;;;;;;;;;;;21.30;23.90;;;;;;465830;254;1097;-74
2022/03/21 10:54:57;;;;;;;;;;;21.40;23.90;;;;;;466009;254;1073;-74
2022/03/21 10:56:55;;;;;;;;;;;21.50;23.80;;;;;;465806;254;1269;-75
2022/03/21 10:58:57;;;;;;;;;;;21.70;23.70;;;;;;465945;254;1053;-75
2022/03/21 11:00:58;;;;;;;;;;;22.00;23.60;;;;;;465659;254;1018;-74
2022/03/21 11:03:00;;;;;;;;;;;22.30;23.40;;;;;;465721;254;2213;-74
2022/03/21 11:05:00;;;;;;;;;;;22.40;23.20;;;;;;465861;254;1532;-75
2022/03/21 11:07:02;;;;;;;;;;;22.60;23.10;;;;;;465620;254;1100;-75
2022/03/21 11:09:03;;;;;;;;;;;22.60;23.10;;;;;;465659;254;1119;-74
2022/03/21 11:11:04;;;;;;;;;;;22.70;23.00;;;;;;465692;254;1112;-74
2022/03/21 11:13:06;;;;;;;;;;;22.80;23.00;;;;;;465714;254;1221;-74
2022/03/21 11:15:07;;;;;;;;;;;22.80;23.00;;;;;;465748;254;1075;-74
2022/03/21 11:17:08;;;;;;;;;;;22.70;23.10;;;;;;465581;254;1149;-74
2022/03/21 11:19:10;;;;;;;;;;;22.60;23.10;;;;;;465652;254;1069;-74
2022/03/21 11:21:13;;;;;;;;;;;22.50;23.20;;;;;;465485;254;1105;-74
2022/03/21 11:23:15;;;;;;;;;;;22.40;23.30;;;;;;465979;255;2130;-74
2022/03/21 11:25:15;;;;;;;;;;;22.40;23.40;;;;;;465711;254;1356;-74
2022/03/21 11:27:16;;;;;;;;;;;22.10;23.50;;;;;;465775;254;1072;-74
2022/03/21 11:29:18;;;;;;;;;;;22.00;23.50;;;;;;465754;254;1096;-74
2022/03/21 11:31:19;;;;;;;;;;;21.70;23.70;;;;;;465685;254;1086;-74
2022/03/21 11:33:20;;;;;;;;;;;21.60;23.90;;;;;;465793;254;1091;-74
2022/03/21 11:35:22;;;;;;;;;;;21.60;24.00;;;;;;465726;254;1501;-74
2022/03/21 11:37:23;;;;;;;;;;;21.40;24.10;;;;;;465513;254;1085;-74
2022/03/21 11:39:24;;;;;;;;;;;21.30;24.20;;;;;;465825;254;1001;-75
2022/03/21 11:41:26;;;;;;;;;;;21.20;24.30;;;;;;465708;254;1044;-74
2022/03/21 11:43:29;;;;;;;;;;;21.10;24.50;;;;;;465736;254;2201;-74
2022/03/21 11:45:30;;;;;;;;;;;21.10;24.40;;;;;;466016;254;1453;-74
2022/03/21 11:47:30;;;;;;;;;;;20.90;24.50;;;;;;465871;254;1316;-74
2022/03/21 11:49:31;;;;;;;;;;;20.90;24.50;;;;;;465718;254;1073;-74
2022/03/21 11:51:32;;;;;;;;;;;21.00;24.50;;;;;;465639;254;1018;-74
2022/03/21 11:53:34;;;;;;;;;;;21.00;24.60;;;;;;465754;254;1103;-75
2022/03/21 11:55:35;;;;;;;;;;;20.80;24.70;;;;;;465912;254;1173;-74
2022/03/21 11:57:38;;;;;;;;;;;21.00;24.60;;;;;;465821;254;1037;-74
2022/03/21 11:59:38;;;;;;;;;;;21.00;24.60;;;;;;466050;254;1351;-74
2022/03/21 12:01:39;;;;;;;;;;;21.00;24.60;;;;;;465790;254;1018;-74
2022/03/21 12:03:42;;;;;;;;;;;21.00;24.60;;;;;;465948;254;2161;-74
2022/03/21 12:05:50;;;;;;;;;;;21.00;24.70;;;;;;465923;254;995;-74
2022/03/21 12:07:45;;;;;;;;;;;20.80;24.90;;;;;;465926;254;1360;-74
2022/03/21 12:09:46;;;;;;;;;;;20.80;24.90;;;;;;466047;254;1031;-74
2022/03/21 12:11:48;;;;;;;;;;;20.80;25.00;;;;;;465950;254;1059;-74
2022/03/21 12:13:49;;;;;;;;;;;20.70;25.00;;;;;;465828;254;1250;-74
2022/03/21 12:15:50;;;;;;;;;;;20.70;25.10;;;;;;465827;254;1055;-74
2022/03/21 12:17:51;;;;;;;;;;;20.70;25.20;;;;;;465846;254;1148;-74